Time;durP1;ratioP1;P1;durP2;ratioP2;P2;SDS_P1;SDS_P2;PMS_P1;PMS_P2;Temp;Humidity;BMP_temperature;BMP_pressure;BME280_temperature;BME280_humidity;BME280_pressure;Samples;Min_cycle;Max_cycle;Signal;HPM_P1;HPM_P2
2021/10/23 00:01:41;;;;;;;17.17;13.38;;;384.70;2329.60;;;;;;4952440;29;20031;-54
2021/10/23 00:04:07;;;;;;;16.13;11.60;;;384.80;2329.60;;;;;;4952445;29;20070;-54
2021/10/23 00:06:32;;;;;;;16.38;11.60;;;384.80;2329.60;;;;;;4952580;29;20027;-54
2021/10/23 00:08:58;;;;;;;14.38;9.95;;;384.80;2329.60;;;;;;4952199;29;20410;-54
2021/10/23 00:11:24;;;;;;;13.07;11.00;;;384.80;2329.60;;;;;;4952091;29;20382;-53
2021/10/23 00:13:50;;;;;;;23.42;16.10;;;384.90;2329.60;;;;;;4952066;29;20101;-54
2021/10/23 00:16:16;;;;;;;22.05;16.77;;;384.90;2329.60;;;;;;4951801;28;20366;-53
2021/10/23 00:18:41;;;;;;;40.88;36.75;;;409.60;2355.20;;;;;;4952352;29;20110;-53
2021/10/23 00:21:07;;;;;;;16.30;12.82;;;409.60;2355.20;;;;;;4952143;29;20415;-54
2021/10/23 00:23:33;;;;;;;17.90;15.05;;;384.90;2329.60;;;;;;4952109;29;20051;-54
2021/10/23 00:25:58;;;;;;;17.02;15.30;;;384.90;2329.60;;;;;;4952066;29;20019;-54
2021/10/23 00:28:24;;;;;;;12.35;11.05;;;384.90;2329.60;;;;;;4951959;29;20062;-52
2021/10/23 00:30:50;;;;;;;10.98;9.10;;;384.80;2329.60;;;;;;4951973;29;20031;-54
2021/10/23 00:33:16;;;;;;;11.43;9.68;;;384.80;2329.60;;;;;;4952252;29;20822;-54
2021/10/23 00:35:41;;;;;;;13.68;9.90;;;384.80;2329.60;;;;;;4952131;29;20035;-54
2021/10/23 00:38:07;;;;;;;10.10;8.15;;;384.80;2329.60;;;;;;4951925;29;20107;-54
2021/10/23 00:40:33;;;;;;;9.82;7.88;;;384.90;2329.60;;;;;;4952047;29;20062;-54
2021/10/23 00:43:00;;;;;;;8.30;6.32;;;384.90;2329.60;;;;;;4952098;29;20066;-54
2021/10/23 00:45:26;;;;;;;10.20;7.43;;;409.60;2355.20;;;;;;4952136;29;20036;-54
2021/10/23 00:47:52;;;;;;;9.73;7.20;;;409.60;2355.20;;;;;;4951981;29;20047;-54
2021/10/23 00:50:18;;;;;;;14.38;8.90;;;409.70;2355.20;;;;;;4951909;29;20027;-55
2021/10/23 00:52:43;;;;;;;34.35;24.55;;;409.70;2355.20;;;;;;4951843;29;20058;-53
2021/10/23 00:55:10;;;;;;;16.30;9.85;;;409.70;2355.20;;;;;;4951709;29;20032;-54
2021/10/23 00:57:38;;;;;;;13.63;9.07;;;409.70;2355.20;;;;;;4951782;29;20023;-53
2021/10/23 01:00:06;;;;;;;13.48;8.38;;;409.80;2355.20;;;;;;4951690;29;20055;-55
2021/10/23 01:02:31;;;;;;;14.20;10.82;;;409.70;2355.20;;;;;;4951583;29;20046;-54
2021/10/23 01:04:57;;;;;;;8.25;5.32;;;409.70;2355.20;;;;;;4951661;29;20023;-54
2021/10/23 01:07:23;;;;;;;8.82;4.93;;;409.60;2355.20;;;;;;4952051;29;20110;-54
2021/10/23 01:09:49;;;;;;;7.82;5.53;;;409.70;2355.20;;;;;;4951533;29;20027;-54
2021/10/23 01:12:15;;;;;;;6.28;4.90;;;409.70;2355.20;;;;;;4951660;29;20050;-55
2021/10/23 01:14:43;;;;;;;7.53;5.25;;;409.70;2355.20;;;;;;4951454;29;20036;-54
2021/10/23 01:17:09;;;;;;;16.77;12.50;;;409.70;2355.20;;;;;;4951606;29;20024;-54
2021/10/23 01:19:36;;;;;;;17.40;13.10;;;409.60;2355.20;;;;;;4951782;29;20031;-53
2021/10/23 01:22:03;;;;;;;16.02;12.73;;;384.80;2329.60;;;;;;4951566;29;20118;-55
2021/10/23 01:24:29;;;;;;;16.08;14.20;;;384.80;2329.60;;;;;;4951565;29;20038;-53
2021/10/23 01:26:55;;;;;;;17.45;14.48;;;384.70;2329.60;;;;;;4951807;28;20023;-54
2021/10/23 01:29:21;;;;;;;14.48;9.98;;;384.70;2329.60;;;;;;4954964;29;20035;-54
2021/10/23 01:31:50;;;;;;;21.30;14.27;;;384.80;2329.60;;;;;;4955105;29;20481;-54
2021/10/23 01:34:21;;;;;;;12.82;10.93;;;384.90;2329.60;;;;;;4955383;29;20449;-54
2021/10/23 01:36:53;;;;;;;15.68;11.82;;;409.60;2355.20;;;;;;4955120;29;20350;-54
2021/10/23 01:39:20;;;;;;;13.65;11.25;;;409.60;2355.20;;;;;;4954869;29;20031;-54
2021/10/23 01:41:46;;;;;;;14.70;11.43;;;409.60;2355.20;;;;;;4954865;29;20051;-53
2021/10/23 01:47:33;;;;;;;15.18;11.68;;;409.60;2355.20;;;;;;4957979;29;20085;-53
2021/10/23 01:49:59;;;;;;;17.55;13.95;;;409.60;2355.20;;;;;;4957783;29;20051;-54
2021/10/23 01:52:26;;;;;;;19.85;14.95;;;384.80;2329.60;;;;;;4957455;29;20389;-53
2021/10/23 01:54:51;;;;;;;20.98;16.60;;;384.60;2329.60;;;;;;4957425;29;20035;-54
2021/10/23 01:57:17;;;;;;;20.70;16.45;;;384.60;2329.60;;;;;;4957682;29;20030;-54
2021/10/23 02:03:05;;;;;;;19.98;16.00;;;384.40;2329.60;;;;;;4957435;29;20125;-51
2021/10/23 02:05:30;;;;;;;23.42;17.98;;;384.40;2329.60;;;;;;4957588;29;20453;-54
2021/10/23 02:07:56;;;;;;;20.17;16.80;;;384.50;2329.60;;;;;;4957639;29;20032;-52
2021/10/23 02:10:22;;;;;;;23.40;16.00;;;384.60;2329.60;;;;;;4957463;29;20078;-54
2021/10/23 02:12:48;;;;;;;17.58;12.82;;;384.60;2329.60;;;;;;4956971;29;20051;-54
2021/10/23 02:18:36;;;;;;;17.98;9.45;;;384.70;2329.60;;;;;;4957399;29;20401;-54
2021/10/23 02:21:05;;;;;;;12.05;7.72;;;384.70;2329.60;;;;;;4957930;29;20074;-54
2021/10/23 02:23:31;;;;;;;8.68;7.40;;;384.70;2329.60;;;;;;4956923;29;20043;-52
2021/10/23 02:25:57;;;;;;;11.85;7.53;;;384.70;2329.60;;;;;;4957257;29;20046;-53
2021/10/23 02:28:22;;;;;;;12.18;8.52;;;384.70;2329.60;;;;;;4956930;29;20027;-53
2021/10/23 02:34:10;;;;;;;13.35;6.53;;;384.80;2329.60;;;;;;4957178;29;20046;-52
2021/10/23 02:36:35;;;;;;;7.60;5.85;;;384.80;2329.60;;;;;;4954782;28;20028;-54
2021/10/23 02:39:01;;;;;;;11.68;6.43;;;384.70;2329.60;;;;;;4953158;28;20055;-52
2021/10/23 02:41:27;;;;;;;6.07;4.80;;;384.60;2329.60;;;;;;4953902;29;20055;-53
2021/10/23 02:43:54;;;;;;;7.22;5.35;;;384.70;2329.60;;;;;;4953783;29;20508;-54
2021/10/23 02:46:20;;;;;;;8.73;5.68;;;384.70;2329.60;;;;;;4953607;29;20176;-53
2021/10/23 02:48:46;;;;;;;9.68;6.45;;;384.90;2329.60;;;;;;4953939;29;20491;-52
2021/10/23 02:51:12;;;;;;;10.63;8.02;;;384.90;2329.60;;;;;;4953561;29;20427;-53
2021/10/23 02:53:38;;;;;;;13.38;8.20;;;409.60;2355.20;;;;;;4953236;29;20788;-53
2021/10/23 02:56:04;;;;;;;11.68;8.93;;;384.90;2329.60;;;;;;4953541;29;20032;-53
2021/10/23 02:58:30;;;;;;;9.25;7.38;;;384.80;2329.60;;;;;;4953536;29;20038;-53
2021/10/23 03:00:56;;;;;;;8.20;7.00;;;409.60;2355.20;;;;;;4953401;29;20050;-53
2021/10/23 03:03:22;;;;;;;10.40;8.07;;;409.60;2355.20;;;;;;4953420;29;20089;-52
2021/10/23 03:05:48;;;;;;;10.98;7.80;;;409.60;2355.20;;;;;;4953313;29;20023;-54
2021/10/23 03:08:15;;;;;;;10.88;9.70;;;409.60;2355.20;;;;;;4953436;29;20045;-53
2021/10/23 03:10:41;;;;;;;10.73;8.98;;;409.60;2355.20;;;;;;4953311;29;20055;-51
2021/10/23 03:13:07;;;;;;;21.90;15.50;;;409.60;2355.20;;;;;;4953075;29;20133;-54
2021/10/23 03:15:32;;;;;;;15.38;11.48;;;384.80;2329.60;;;;;;4953086;29;20568;-53
2021/10/23 03:17:58;;;;;;;15.40;12.57;;;384.70;2329.60;;;;;;4953111;29;20039;-52
2021/10/23 03:20:24;;;;;;;25.17;19.13;;;384.60;2329.60;;;;;;4953201;29;20028;-52
2021/10/23 03:22:50;;;;;;;24.90;19.63;;;384.60;2329.60;;;;;;4952670;29;20485;-52
2021/10/23 03:25:16;;;;;;;28.65;23.35;;;384.60;2329.60;;;;;;4953439;29;20473;-52
2021/10/23 03:27:42;;;;;;;26.02;20.67;;;384.70;2329.60;;;;;;4953215;29;20078;-52
2021/10/23 03:30:08;;;;;;;24.98;18.45;;;384.80;2329.60;;;;;;4952793;29;20047;-52
2021/10/23 03:32:34;;;;;;;31.90;20.10;;;384.80;2329.60;;;;;;4952830;29;20062;-52
2021/10/23 03:35:00;;;;;;;32.10;23.83;;;384.90;2329.60;;;;;;4952745;29;20027;-52
2021/10/23 03:37:30;;;;;;;30.85;21.60;;;384.90;2329.60;;;;;;4952909;29;20101;-53
2021/10/23 03:39:56;;;;;;;26.15;18.70;;;384.90;2329.60;;;;;;4952856;29;20462;-52
2021/10/23 03:42:22;;;;;;;26.90;19.30;;;409.60;2355.20;;;;;;4952431;29;20054;-52
2021/10/23 03:44:47;;;;;;;23.95;16.08;;;384.90;2329.60;;;;;;4952604;29;20023;-52
2021/10/23 03:47:16;;;;;;;21.40;15.38;;;384.90;2329.60;;;;;;4952881;29;20066;-52
2021/10/23 03:49:42;;;;;;;16.20;12.90;;;409.60;2355.20;;;;;;4952682;29;20023;-53
2021/10/23 03:52:08;;;;;;;16.23;11.57;;;409.60;2355.20;;;;;;4952126;28;20035;-52
2021/10/23 03:54:34;;;;;;;13.50;9.52;;;409.60;2355.20;;;;;;4952563;29;20035;-54
2021/10/23 03:57:00;;;;;;;14.50;9.60;;;409.60;2355.20;;;;;;4952456;29;20023;-53
2021/10/23 03:59:25;;;;;;;12.20;8.25;;;409.60;2355.20;;;;;;4952828;29;20038;-53
2021/10/23 04:01:51;;;;;;;14.07;10.35;;;409.70;2355.20;;;;;;4952448;29;20047;-52
2021/10/23 04:04:17;;;;;;;28.75;25.42;;;409.60;2355.20;;;;;;4952249;29;20462;-53
2021/10/23 04:06:43;;;;;;;14.73;11.82;;;384.90;2329.60;;;;;;4952415;29;20054;-53
2021/10/23 04:09:09;;;;;;;36.58;27.05;;;409.60;2355.20;;;;;;4952269;29;20380;-54
2021/10/23 04:11:35;;;;;;;25.17;19.48;;;384.80;2329.60;;;;;;4952438;29;20114;-55
2021/10/23 04:14:02;;;;;;;31.00;21.80;;;384.70;2329.60;;;;;;4952045;29;20074;-53
2021/10/23 04:16:28;;;;;;;40.38;27.65;;;384.60;2329.60;;;;;;4952131;29;20027;-53
2021/10/23 04:18:54;;;;;;;44.42;34.00;;;384.70;2329.60;;;;;;4952334;29;20078;-53
2021/10/23 04:21:19;;;;;;;43.28;30.50;;;384.70;2329.60;;;;;;4951831;29;20070;-53
2021/10/23 04:23:45;;;;;;;40.92;32.97;;;384.80;2329.60;;;;;;4952034;29;20051;-52
2021/10/23 04:26:11;;;;;;;33.28;29.00;;;384.80;2329.60;;;;;;4951853;29;20078;-53
2021/10/23 04:28:37;;;;;;;37.30;26.40;;;384.90;2329.60;;;;;;4951994;29;20032;-53
2021/10/23 04:31:03;;;;;;;41.55;37.58;;;384.80;2329.60;;;;;;4951956;29;20046;-52
2021/10/23 04:33:28;;;;;;;36.08;25.98;;;384.70;2329.60;;;;;;4951934;29;20112;-54
2021/10/23 04:35:54;;;;;;;23.27;18.15;;;384.70;2329.60;;;;;;4952113;29;20030;-53
2021/10/23 04:38:20;;;;;;;23.52;18.63;;;384.50;2329.60;;;;;;4951898;29;20081;-52
2021/10/23 04:40:46;;;;;;;25.08;21.08;;;384.50;2329.60;;;;;;4952301;29;20030;-53
2021/10/23 04:43:12;;;;;;;27.20;21.67;;;384.40;2329.60;;;;;;4934435;29;20130;-53
2021/10/23 04:45:39;;;;;;;25.67;21.50;;;384.60;2329.60;;;;;;4951637;29;20183;-53
2021/10/23 04:48:06;;;;;;;22.02;18.95;;;384.40;2329.60;;;;;;4952053;29;20031;-53
2021/10/23 04:50:32;;;;;;;25.10;18.40;;;384.20;2329.60;;;;;;4952083;29;20025;-53
2021/10/23 04:52:58;;;;;;;20.70;14.90;;;384.10;2329.60;;;;;;4951576;29;20110;-54
2021/10/23 04:55:23;;;;;;;17.70;14.57;;;384.00;2329.60;;;;;;4944054;29;20031;-54
2021/10/23 04:57:49;;;;;;;28.77;22.70;;;384.00;2329.60;;;;;;4951711;29;20111;-54
2021/10/23 05:00:15;;;;;;;23.90;16.75;;;359.30;2329.60;;;;;;4951944;29;20027;-55
2021/10/23 05:02:41;;;;;;;24.45;17.63;;;359.20;2329.60;;;;;;4952698;28;20126;-53
2021/10/23 05:05:07;;;;;;;18.60;15.52;;;359.30;2329.60;;;;;;4955397;29;20031;-55
2021/10/23 05:07:33;;;;;;;23.08;16.48;;;359.30;2329.60;;;;;;4955655;29;20609;-54
2021/10/23 05:09:59;;;;;;;19.00;15.77;;;384.00;2329.60;;;;;;4938199;29;20365;-53
2021/10/23 05:12:25;;;;;;;22.40;17.08;;;359.30;2329.60;;;;;;4955356;29;20092;-53
2021/10/23 05:14:51;;;;;;;21.95;16.45;;;359.20;2329.60;;;;;;4955302;29;20074;-53
2021/10/23 05:17:17;;;;;;;21.30;18.77;;;358.90;2329.60;;;;;;4955609;29;20911;-53
2021/10/23 05:19:42;;;;;;;20.60;16.13;;;358.60;2329.60;;;;;;4955499;29;20035;-54
2021/10/23 05:22:08;;;;;;;24.73;17.38;;;358.50;2329.60;;;;;;4955032;29;20118;-54
2021/10/23 05:24:34;;;;;;;19.05;14.40;;;333.70;2329.60;;;;;;4955328;29;20030;-54
2021/10/23 05:27:00;;;;;;;24.63;15.02;;;333.50;2329.60;;;;;;4955276;29;20081;-54
2021/10/23 05:29:25;;;;;;;16.58;12.05;;;333.40;2329.60;;;;;;4955469;29;20042;-53
2021/10/23 05:31:51;;;;;;;21.95;14.35;;;333.20;2329.60;;;;;;4955099;29;20031;-54
2021/10/23 05:34:17;;;;;;;17.52;12.80;;;333.20;2329.60;;;;;;4955025;29;20039;-55
2021/10/23 05:36:43;;;;;;;18.17;11.38;;;333.20;2329.60;;;;;;4955090;29;20027;-53
2021/10/23 05:39:09;;;;;;;14.68;10.05;;;333.20;2329.60;;;;;;4954862;29;20039;-53
2021/10/23 05:41:34;;;;;;;16.48;10.88;;;333.30;2329.60;;;;;;4955108;29;20035;-55
2021/10/23 05:44:00;;;;;;;15.73;10.55;;;333.20;2329.60;;;;;;4954718;29;20137;-55
2021/10/23 05:46:26;;;;;;;13.52;10.13;;;333.20;2329.60;;;;;;4955121;29;20027;-54
2021/10/23 05:48:52;;;;;;;15.40;10.30;;;333.00;2329.60;;;;;;4955159;29;20489;-54
2021/10/23 05:51:17;;;;;;;11.45;8.30;;;333.00;2329.60;;;;;;4954828;29;20074;-53
2021/10/23 05:53:44;;;;;;;15.90;8.20;;;332.90;2329.60;;;;;;4954706;29;20478;-53
2021/10/23 05:56:10;;;;;;;18.00;12.90;;;333.00;2329.60;;;;;;4954431;29;20023;-53
2021/10/23 05:58:35;;;;;;;10.27;7.35;;;332.80;2329.60;;;;;;4954851;29;20030;-53
2021/10/23 06:01:10;;;;;;;12.63;7.13;;;332.80;2329.60;;;;;;4954502;29;20062;-53
2021/10/23 06:03:37;;;;;;;15.07;7.95;;;332.80;2329.60;;;;;;4954622;29;20113;-53
2021/10/23 06:06:04;;;;;;;11.77;7.68;;;308.10;2304.00;;;;;;4954664;29;20031;-53
2021/10/23 06:08:31;;;;;;;10.07;7.28;;;308.00;2304.00;;;;;;4954297;29;20031;-54
2021/10/23 06:10:58;;;;;;;10.45;5.78;;;332.80;2329.60;;;;;;4937327;29;20386;-53
2021/10/23 06:13:25;;;;;;;11.57;6.30;;;307.90;2304.00;;;;;;4946094;28;20055;-53
2021/10/23 06:15:51;;;;;;;11.32;7.28;;;307.80;2304.00;;;;;;4953426;29;20059;-54
2021/10/23 06:18:19;;;;;;;11.80;7.18;;;307.80;2304.00;;;;;;4954408;29;20069;-54
2021/10/23 06:20:45;;;;;;;13.70;9.35;;;307.70;2304.00;;;;;;4954562;29;20023;-55
2021/10/23 06:23:12;;;;;;;14.18;9.43;;;307.80;2304.00;;;;;;4953826;29;20039;-53
2021/10/23 06:25:38;;;;;;;173.23;118.00;;;307.60;2304.00;;;;;;4954223;29;20059;-54
2021/10/23 06:28:04;;;;;;;65.57;44.38;;;307.50;2304.00;;;;;;4954289;29;20032;-53
2021/10/23 06:30:29;;;;;;;26.83;18.13;;;307.60;2304.00;;;;;;4954000;29;20020;-53
2021/10/23 06:32:57;;;;;;;14.70;9.13;;;307.50;2304.00;;;;;;4954346;29;20024;-55
2021/10/23 06:35:24;;;;;;;14.10;11.20;;;307.50;2304.00;;;;;;4946195;29;20174;-54
2021/10/23 06:37:50;;;;;;;9.95;7.03;;;307.40;2304.00;;;;;;4953911;29;20082;-54
2021/10/23 06:40:17;;;;;;;9.07;6.97;;;307.40;2304.00;;;;;;4954148;29;20019;-54
2021/10/23 06:42:43;;;;;;;23.83;19.70;;;307.60;2304.00;;;;;;4953856;29;20118;-54
2021/10/23 06:45:11;;;;;;;11.48;8.30;;;307.60;2304.00;;;;;;4953786;29;20113;-54
2021/10/23 06:47:38;;;;;;;13.63;10.15;;;307.60;2304.00;;;;;;4953796;29;20393;-55
2021/10/23 06:50:06;;;;;;;14.55;10.90;;;307.60;2304.00;;;;;;4953886;29;20023;-54
2021/10/23 06:52:32;;;;;;;19.70;15.00;;;307.60;2304.00;;;;;;4953853;29;20031;-55
2021/10/23 06:54:58;;;;;;;13.05;7.97;;;307.70;2304.00;;;;;;4953759;29;20473;-54
2021/10/23 06:57:24;;;;;;;15.82;10.02;;;308.00;2304.00;;;;;;4953774;29;20032;-54
2021/10/23 06:59:49;;;;;;;20.20;17.02;;;308.00;2304.00;;;;;;4953538;29;20090;-55
2021/10/23 07:02:15;;;;;;;13.70;10.35;;;307.90;2304.00;;;;;;4953740;29;20031;-54
2021/10/23 07:04:41;;;;;;;19.58;14.20;;;308.10;2304.00;;;;;;4953508;29;20055;-54
2021/10/23 07:07:06;;;;;;;14.65;8.88;;;308.10;2304.00;;;;;;4953613;29;20245;-54
2021/10/23 07:09:32;;;;;;;13.02;7.85;;;332.80;2329.60;;;;;;4953353;29;20094;-55
2021/10/23 07:11:59;;;;;;;13.93;7.38;;;332.90;2329.60;;;;;;4953216;29;20066;-54
2021/10/23 07:14:24;;;;;;;12.23;8.60;;;332.80;2329.60;;;;;;4953360;29;20031;-54
2021/10/23 07:16:50;;;;;;;10.40;7.60;;;333.00;2329.60;;;;;;4952653;29;20031;-54
2021/10/23 07:19:16;;;;;;;12.73;10.23;;;333.10;2329.60;;;;;;4953433;29;20024;-52
2021/10/23 07:21:42;;;;;;;13.07;9.85;;;333.10;2329.60;;;;;;4953058;29;20166;-54
2021/10/23 07:24:07;;;;;;;10.95;8.32;;;333.20;2329.60;;;;;;4952772;29;20425;-55
2021/10/23 07:26:33;;;;;;;11.25;9.05;;;333.00;2329.60;;;;;;4952719;28;20023;-54
2021/10/23 07:28:59;;;;;;;10.95;6.95;;;333.00;2329.60;;;;;;4952876;29;20114;-54
2021/10/23 07:31:25;;;;;;;12.35;6.85;;;333.00;2329.60;;;;;;4952995;28;20102;-54
2021/10/23 07:33:51;;;;;;;12.07;7.75;;;333.00;2329.60;;;;;;4952967;29;20027;-55
2021/10/23 07:36:17;;;;;;;9.50;5.90;;;332.90;2329.60;;;;;;4953070;29;20110;-55
2021/10/23 07:38:44;;;;;;;12.18;6.05;;;332.90;2329.60;;;;;;4952977;29;20036;-55
2021/10/23 07:41:10;;;;;;;16.65;7.13;;;332.80;2329.60;;;;;;4953008;29;20027;-56
2021/10/23 07:43:35;;;;;;;14.95;8.90;;;308.10;2304.00;;;;;;4952748;29;20123;-55
2021/10/23 07:46:02;;;;;;;45.38;40.65;;;308.10;2304.00;;;;;;4952521;29;20027;-55
2021/10/23 07:48:28;;;;;;;32.55;26.17;;;308.10;2304.00;;;;;;4952610;29;20506;-55
2021/10/23 07:50:53;;;;;;;22.50;16.80;;;332.80;2329.60;;;;;;4952821;29;20036;-54
2021/10/23 07:53:20;;;;;;;29.98;18.27;;;308.10;2304.00;;;;;;4952495;29;20074;-53
2021/10/23 07:55:47;;;;;;;23.38;15.65;;;308.00;2304.00;;;;;;4952774;29;20422;-55
2021/10/23 07:58:13;;;;;;;28.00;21.05;;;307.80;2304.00;;;;;;4952737;29;20035;-53
2021/10/23 08:00:39;;;;;;;43.42;30.10;;;307.90;2304.00;;;;;;4952357;29;20035;-51
2021/10/23 08:03:05;;;;;;;11.75;7.07;;;307.80;2304.00;;;;;;4952562;29;20039;-53
2021/10/23 08:05:35;;;;;;;10.10;6.97;;;307.70;2304.00;;;;;;4952620;29;20055;-53
2021/10/23 08:08:03;;;;;;;20.30;13.95;;;307.60;2304.00;;;;;;4952320;29;20094;-53
2021/10/23 08:10:30;;;;;;;23.38;18.50;;;307.80;2304.00;;;;;;4952229;29;20035;-53
2021/10/23 08:12:56;;;;;;;77.32;62.90;;;307.80;2304.00;;;;;;4952529;29;20051;-52
2021/10/23 08:15:23;;;;;;;49.65;38.58;;;307.90;2304.00;;;;;;4952398;29;20057;-52
2021/10/23 08:17:49;;;;;;;14.77;11.30;;;308.10;2304.00;;;;;;4952253;29;20027;-53
2021/10/23 08:20:15;;;;;;;16.75;9.32;;;308.10;2304.00;;;;;;4952472;29;20031;-54
2021/10/23 08:22:42;;;;;;;21.05;17.85;;;332.80;2329.60;;;;;;4951870;28;20032;-53
2021/10/23 08:25:10;;;;;;;24.17;16.83;;;332.90;2329.60;;;;;;4952119;29;20093;-54
2021/10/23 08:27:40;;;;;;;11.70;7.85;;;332.90;2329.60;;;;;;4952225;29;20489;-55
2021/10/23 08:30:08;;;;;;;11.00;7.43;;;332.90;2329.60;;;;;;4951710;29;20027;-52
2021/10/23 08:32:35;;;;;;;32.17;27.38;;;332.90;2329.60;;;;;;4950426;29;20474;-52
2021/10/23 08:35:01;;;;;;;53.95;37.15;;;332.90;2329.60;;;;;;4950404;29;20058;-53
2021/10/23 08:37:27;;;;;;;39.78;30.15;;;332.80;2329.60;;;;;;4949798;29;20077;-53
2021/10/23 08:39:52;;;;;;;24.48;17.77;;;332.90;2329.60;;;;;;4950563;29;20059;-54
2021/10/23 08:42:18;;;;;;;25.63;11.18;;;308.10;2304.00;;;;;;4950415;29;20064;-54
2021/10/23 08:44:45;;;;;;;26.25;15.60;;;307.90;2304.00;;;;;;4950091;29;20031;-53
2021/10/23 08:47:13;;;;;;;33.60;24.30;;;308.10;2304.00;;;;;;4950433;29;20031;-52
2021/10/23 08:49:40;;;;;;;18.23;10.23;;;332.80;2329.60;;;;;;4950282;29;20037;-54
2021/10/23 08:52:06;;;;;;;26.55;13.68;;;332.90;2329.60;;;;;;4950426;29;20024;-54
2021/10/23 08:54:33;;;;;;;42.35;27.50;;;333.20;2329.60;;;;;;4950185;29;20389;-53
2021/10/23 08:57:00;;;;;;;16.65;9.00;;;333.50;2329.60;;;;;;4950006;29;20035;-53
2021/10/23 08:59:27;;;;;;;18.05;10.25;;;333.40;2329.60;;;;;;4950447;29;20027;-54
2021/10/23 09:02:02;;;;;;;13.60;10.13;;;333.50;2329.60;;;;;;4950755;29;20023;-53
2021/10/23 09:04:32;;;;;;;10.55;5.80;;;333.70;2329.60;;;;;;4944743;29;20053;-54
2021/10/23 09:07:13;;;;;;;7.40;4.38;;;358.40;2329.60;;;;;;4951562;29;20038;-54
2021/10/23 09:09:54;;;;;;;11.98;7.20;;;358.90;2329.60;;;;;;4951650;29;20034;-53
2021/10/23 09:12:27;;;;;;;12.77;8.27;;;359.10;2329.60;;;;;;4951644;29;20039;-53
2021/10/23 09:15:19;;;;;;;14.85;7.07;;;384.40;2329.60;;;;;;4951747;29;20024;-54
2021/10/23 09:17:49;;;;;;;16.95;9.95;;;384.30;2329.60;;;;;;4948200;29;20163;-54
2021/10/23 09:20:17;;;;;;;13.73;8.90;;;384.40;2329.60;;;;;;4952072;29;20394;-54
2021/10/23 09:22:47;;;;;;;7.82;4.47;;;384.40;2329.60;;;;;;4951703;29;20047;-54
2021/10/23 09:25:24;;;;;;;16.42;10.63;;;384.30;2329.60;;;;;;4951896;29;20075;-54
2021/10/23 09:28:11;;;;;;;14.80;6.97;;;384.30;2329.60;;;;;;4951516;29;20449;-55
2021/10/23 09:30:44;;;;;;;31.15;18.30;;;384.00;2329.60;;;;;;4951381;29;20102;-54
2021/10/23 09:33:21;;;;;;;17.65;12.57;;;359.30;2329.60;;;;;;4951415;29;20171;-54
2021/10/23 09:35:55;;;;;;;11.02;6.47;;;359.20;2329.60;;;;;;4951615;29;20054;-55
2021/10/23 09:38:23;;;;;;;12.23;8.48;;;359.10;2329.60;;;;;;4951417;29;20493;-54
2021/10/23 09:40:52;;;;;;;15.05;7.05;;;359.00;2329.60;;;;;;4951295;29;20026;-55
2021/10/23 09:43:21;;;;;;;8.70;6.30;;;359.00;2329.60;;;;;;4951387;29;20031;-54
2021/10/23 09:45:59;;;;;;;27.02;13.02;;;358.70;2329.60;;;;;;4951802;29;20019;-55
2021/10/23 09:48:37;;;;;;;11.13;6.70;;;358.50;2329.60;;;;;;4952124;28;20053;-54
2021/10/23 09:51:20;;;;;;;296.17;158.15;;;358.50;2329.60;;;;;;4954718;29;20033;-54
2021/10/23 09:53:48;;;;;;;22.13;10.47;;;358.60;2329.60;;;;;;4954921;29;20106;-53
2021/10/23 09:56:25;;;;;;;9.90;5.80;;;358.60;2329.60;;;;;;4954879;29;20628;-54
2021/10/23 09:58:59;;;;;;;26.00;15.63;;;358.50;2329.60;;;;;;4954719;29;20023;-60
2021/10/23 10:01:30;;;;;;;32.42;20.75;;;358.50;2329.60;;;;;;4954558;29;20434;-67
2021/10/23 10:04:15;;;;;;;39.60;32.63;;;358.70;2329.60;;;;;;4954813;29;20043;-56
2021/10/23 10:06:41;;;;;;;22.73;12.93;;;358.70;2329.60;;;;;;4954610;29;20422;-57
2021/10/23 10:09:09;;;;;;;12.50;6.63;;;358.70;2329.60;;;;;;4954805;29;20592;-60
2021/10/23 10:11:37;;;;;;;11.43;6.68;;;358.90;2329.60;;;;;;4954742;29;20073;-61
2021/10/23 10:14:11;;;;;;;12.45;4.75;;;358.90;2329.60;;;;;;4954470;29;20055;-63
2021/10/23 10:16:41;;;;;;;7.25;4.50;;;359.10;2329.60;;;;;;4954542;29;20396;-62
2021/10/23 10:19:07;;;;;;;8.18;3.95;;;358.90;2329.60;;;;;;4954543;29;20190;-60
2021/10/23 10:21:39;;;;;;;10.65;4.15;;;359.00;2329.60;;;;;;4954212;29;20039;-53
2021/10/23 10:24:15;;;;;;;8.35;3.45;;;359.10;2329.60;;;;;;4954091;29;20490;-58
2021/10/23 10:26:53;;;;;;;8.73;5.25;;;358.90;2329.60;;;;;;4954069;29;20047;-65
2021/10/23 10:32:06;;;;;;;46.30;27.83;;;358.70;2329.60;;;;;;4954168;29;20480;-59
2021/10/23 10:43:01;;;;;;;10.57;7.03;;;358.40;2329.60;;;;;;4913424;29;20456;-66
2021/10/23 10:45:48;;;;;;;17.73;13.60;;;333.70;2329.60;;;;;;4913638;29;20083;-59
2021/10/23 10:48:26;;;;;;;11.43;6.68;;;358.40;2329.60;;;;;;4913885;29;20033;-55
2021/10/23 10:50:52;;;;;;;10.93;5.28;;;358.50;2329.60;;;;;;4913441;29;20527;-62
2021/10/23 10:53:22;;;;;;;7.47;4.88;;;358.40;2329.60;;;;;;4913344;29;20569;-63
2021/10/23 10:55:51;;;;;;;76.47;62.65;;;333.70;2329.60;;;;;;4913455;29;20136;-54
2021/10/23 10:58:40;;;;;;;29.40;20.45;;;358.40;2329.60;;;;;;4913643;29;20039;-53
2021/10/23 11:01:24;;;;;;;21.08;13.85;;;333.70;2329.60;;;;;;4906038;29;20123;-61
2021/10/23 11:03:52;;;;;;;6.68;4.40;;;358.50;2329.60;;;;;;4913024;29;20040;-56
2021/10/23 11:06:36;;;;;;;11.10;5.00;;;358.40;2329.60;;;;;;4913123;29;20474;-59
2021/10/23 11:09:10;;;;;;;8.45;4.88;;;333.70;2329.60;;;;;;4913096;29;20607;-63
2021/10/23 11:11:48;;;;;;;6.25;4.60;;;333.40;2329.60;;;;;;4913266;29;20043;-61
2021/10/23 11:14:31;;;;;;;12.50;8.02;;;333.30;2329.60;;;;;;4913343;29;20076;-54
2021/10/23 11:17:03;;;;;;;16.33;8.10;;;333.20;2329.60;;;;;;4913360;29;20035;-61
2021/10/23 11:19:41;;;;;;;6.33;4.47;;;333.30;2329.60;;;;;;4925381;29;20035;-56
2021/10/23 11:22:11;;;;;;;9.93;7.75;;;333.20;2329.60;;;;;;4953335;29;20135;-60
2021/10/23 11:24:49;;;;;;;17.08;12.77;;;333.20;2329.60;;;;;;4953408;29;20131;-54
2021/10/23 11:27:31;;;;;;;9.95;4.60;;;333.20;2329.60;;;;;;4953260;29;20023;-53
2021/10/23 11:30:29;;;;;;;7.28;4.43;;;333.20;2329.60;;;;;;4953104;29;20027;-55
2021/10/23 11:33:04;;;;;;;8.80;4.22;;;333.10;2329.60;;;;;;4952612;29;20062;-55
2021/10/23 11:35:35;;;;;;;11.23;6.15;;;333.00;2329.60;;;;;;4952881;29;20030;-54
2021/10/23 11:38:22;;;;;;;11.88;7.10;;;333.00;2329.60;;;;;;4952792;29;20038;-54
2021/10/23 11:40:54;;;;;;;15.63;11.90;;;333.00;2329.60;;;;;;4952873;29;20027;-55
2021/10/23 11:43:20;;;;;;;25.98;14.45;;;333.00;2329.60;;;;;;4952740;29;20046;-53
2021/10/23 11:45:46;;;;;;;41.67;26.85;;;332.90;2329.60;;;;;;4953027;29;20024;-60
2021/10/23 11:48:13;;;;;;;53.88;35.95;;;332.80;2329.60;;;;;;4952513;29;20118;-53
2021/10/23 11:50:43;;;;;;;42.88;27.35;;;332.90;2329.60;;;;;;4952641;29;20051;-62
2021/10/23 11:53:15;;;;;;;23.70;12.88;;;333.00;2329.60;;;;;;4952384;29;20038;-53
2021/10/23 11:55:45;;;;;;;24.70;14.63;;;332.90;2329.60;;;;;;4952422;29;20405;-55
2021/10/23 11:58:16;;;;;;;17.00;9.13;;;333.10;2329.60;;;;;;4952308;29;20034;-62
2021/10/23 12:00:57;;;;;;;16.90;9.95;;;333.00;2329.60;;;;;;4952484;29;20126;-53
2021/10/23 12:03:37;;;;;;;14.75;5.85;;;333.20;2329.60;;;;;;4952116;29;20082;-64
2021/10/23 12:06:28;;;;;;;16.08;5.32;;;333.10;2329.60;;;;;;4952341;29;20027;-52
2021/10/23 12:08:55;;;;;;;12.68;8.52;;;333.20;2329.60;;;;;;4952384;29;20063;-54
2021/10/23 12:11:24;;;;;;;8.77;5.03;;;333.30;2329.60;;;;;;4934658;29;20411;-54
2021/10/23 12:14:06;;;;;;;8.05;4.68;;;333.20;2329.60;;;;;;4952013;29;20043;-54
2021/10/23 12:16:35;;;;;;;12.75;5.80;;;333.10;2329.60;;;;;;4952339;29;20027;-60
2021/10/23 12:19:06;;;;;;;8.82;4.80;;;333.20;2329.60;;;;;;4952099;29;20026;-54
2021/10/23 12:22:04;;;;;;;14.63;6.30;;;333.10;2329.60;;;;;;4952088;29;20034;-61
2021/10/23 12:24:30;;;;;;;21.23;14.30;;;333.10;2329.60;;;;;;4924910;29;20043;-66
2021/10/23 12:27:12;;;;;;;18.08;12.18;;;333.00;2329.60;;;;;;4952473;29;20085;-63
2021/10/23 12:29:38;;;;;;;12.93;7.25;;;333.10;2329.60;;;;;;4951953;29;20465;-57
2021/10/23 12:32:12;;;;;;;77.72;43.88;;;333.20;2329.60;;;;;;4952159;29;20042;-53
2021/10/23 12:35:07;;;;;;;14.35;6.60;;;333.10;2329.60;;;;;;4952048;29;20461;-55